createdAt,value
2023-03-28T00:04:17.381Z,61126.16
2023-03-28T00:09:20.715Z,61184.94
2023-03-28T00:14:24.879Z,61137.44
2023-03-28T00:19:27.586Z,61142.41
2023-03-28T00:24:30.278Z,61115.53
2023-03-28T00:29:35.338Z,61162.22
2023-03-28T00:34:38.007Z,61154.47
2023-03-28T00:39:43.458Z,61138.88
2023-03-28T00:44:50.048Z,61093.16
2023-03-28T00:49:55.320Z,61091.69
2023-03-28T00:54:59.429Z,61090.91
2023-03-28T01:00:06.850Z,61085.81
2023-03-28T01:05:10.890Z,61079.84
2023-03-28T01:10:14.248Z,61037.38
2023-03-28T01:15:18.321Z,61066.97
2023-03-28T01:20:49.282Z,61058.69
2023-03-28T01:26:27.017Z,61055.25
2023-03-28T01:31:48.650Z,61073.78
2023-03-28T01:37:05.748Z,61107.41
2023-03-28T01:42:15.971Z,61131.03
2023-03-28T01:47:27.687Z,61179.38
2023-03-28T01:52:37.744Z,61184.53
2023-03-28T01:57:50.311Z,61160.47
2023-03-28T02:02:57.982Z,61209.97
2023-03-28T02:08:04.822Z,61204.84
2023-03-28T02:13:15.443Z,61216.44
2023-03-28T02:18:23.685Z,61196.00
2023-03-28T02:23:33.166Z,61169.06
2023-03-28T02:28:38.514Z,61133.03
2023-03-28T02:33:42.912Z,61098.44
2023-03-28T02:38:56.392Z,61114.72
2023-03-28T02:44:27.176Z,61078.66
2023-03-28T02:49:50.063Z,61074.28
2023-03-28T02:55:03.231Z,61051.69
2023-03-28T03:00:11.509Z,61076.13
2023-03-28T03:05:14.389Z,61073.16
2023-03-28T03:10:19.120Z,61068.38
2023-03-28T03:15:21.792Z,61108.25
2023-03-28T03:20:26.048Z,61154.81
2023-03-28T03:25:31.265Z,61112.75
2023-03-28T03:30:33.895Z,61047.84
2023-03-28T03:35:36.724Z,61053.94
2023-03-28T03:40:40.995Z,61064.72
2023-03-28T03:45:45.922Z,61023.88
2023-03-28T03:50:48.682Z,61029.44
2023-03-28T03:55:52.586Z,61021.16
2023-03-28T04:00:55.755Z,61014.06
2023-03-28T04:05:58.687Z,60971.56
2023-03-28T04:11:03.256Z,61018.81
2023-03-28T04:16:06.682Z,61013.53
2023-03-28T04:21:10.358Z,61001.22
2023-03-28T04:26:15.423Z,60997.91
2023-03-28T04:31:18.020Z,60957.63
2023-03-28T04:36:22.609Z,61005.38
2023-03-28T04:41:26.731Z,61006.88
2023-03-28T04:46:29.658Z,60973.66
2023-03-28T04:51:33.244Z,61000.47
2023-03-28T04:56:37.380Z,60956.31
2023-03-28T05:01:42.011Z,60963.00
2023-03-28T05:06:45.218Z,60925.47
2023-03-28T05:11:49.279Z,60947.56
2023-03-28T05:16:52.189Z,60945.72
2023-03-28T05:21:54.771Z,60918.56
2023-03-28T05:26:58.732Z,60916.91
2023-03-28T05:32:01.387Z,60926.22
2023-03-28T05:37:04.246Z,60941.50
2023-03-28T05:42:09.277Z,60937.53
2023-03-28T05:47:11.911Z,60953.44
2023-03-28T05:52:14.545Z,60964.34
2023-03-28T05:57:18.733Z,60991.94
2023-03-28T06:02:23.086Z,60984.81
2023-03-28T06:07:39.204Z,60996.66
2023-03-28T06:12:46.301Z,61057.16
2023-03-28T06:17:49.040Z,61062.34
2023-03-28T06:22:52.237Z,61085.72
2023-03-28T06:27:56.838Z,61102.94
2023-03-28T06:32:59.457Z,61144.69
2023-03-28T06:38:02.223Z,61202.28
2023-03-28T06:43:06.132Z,61397.06
2023-03-28T06:48:08.876Z,61591.47
2023-03-28T06:53:11.610Z,61786.94
2023-03-28T06:58:15.489Z,61827.69
2023-03-28T07:03:18.153Z,61885.09
2023-03-28T07:08:21.462Z,61846.88
2023-03-28T07:13:25.675Z,61914.59
2023-03-28T07:18:28.286Z,61881.97
2023-03-28T07:23:30.982Z,61852.53
2023-03-28T07:28:35.524Z,61856.66
2023-03-28T07:33:38.742Z,61829.91
2023-03-28T07:38:41.972Z,61962.50
2023-03-28T07:43:46.460Z,61922.88
2023-03-28T07:48:49.042Z,62001.75
2023-03-28T07:53:51.842Z,62109.41
2023-03-28T07:58:56.025Z,62171.00
2023-03-28T08:03:59.470Z,62203.00
2023-03-28T08:09:02.285Z,62248.16
2023-03-28T08:14:09.353Z,62269.28
2023-03-28T08:19:12.356Z,62298.69
2023-03-28T08:24:22.336Z,62179.19
2023-03-28T08:29:33.310Z,62077.16
2023-03-28T08:34:37.365Z,62103.13
2023-03-28T08:39:42.443Z,62153.41
2023-03-28T08:44:58.330Z,62201.56
2023-03-28T08:50:09.737Z,62201.91
2023-03-28T08:55:29.033Z,62200.91
2023-03-28T09:00:36.995Z,62210.69
2023-03-28T09:05:48.015Z,62215.63
2023-03-28T09:10:57.019Z,62245.47
2023-03-28T09:16:30.507Z,62294.22
2023-03-28T09:21:43.906Z,62108.88
2023-03-28T09:26:53.132Z,62087.81
2023-03-28T09:32:01.040Z,62011.00
2023-03-28T09:37:15.391Z,61919.69
2023-03-28T09:42:28.377Z,61887.66
2023-03-28T09:47:33.977Z,61926.75
2023-03-28T09:52:36.676Z,62011.38
2023-03-28T09:58:11.506Z,62070.25
2023-03-28T10:03:23.350Z,62031.22
2023-03-28T10:08:32.756Z,62088.63
2023-03-28T10:13:40.706Z,62047.63
2023-03-28T10:18:45.020Z,61965.16
2023-03-28T10:23:55.134Z,61907.69
2023-03-28T10:29:04.307Z,61939.34
2023-03-28T10:34:26.207Z,61947.75
2023-03-28T10:39:30.881Z,61877.47
2023-03-28T10:44:36.561Z,61928.97
2023-03-28T10:49:45.928Z,62065.81
2023-03-28T10:55:01.562Z,62172.09
2023-03-28T11:00:12.237Z,62163.09
2023-03-28T11:05:29.029Z,62098.59
2023-03-28T11:10:43.347Z,62022.28
2023-03-28T11:15:56.934Z,62039.28
2023-03-28T11:21:13.168Z,62041.09
2023-03-28T11:26:18.932Z,62080.19
2023-03-28T11:31:27.927Z,62101.63
2023-03-28T11:36:37.214Z,62085.59
2023-03-28T11:41:42.523Z,62107.31
2023-03-28T11:46:51.588Z,62120.22
2023-03-28T11:52:05.141Z,62120.41
2023-03-28T11:57:16.792Z,62095.69
2023-03-28T12:02:41.319Z,62114.78
2023-03-28T12:07:52.260Z,62116.69
2023-03-28T12:13:06.725Z,62093.84
2023-03-28T12:18:16.043Z,62064.28
2023-03-28T12:23:28.463Z,62060.97
2023-03-28T12:28:38.937Z,62040.41
2023-03-28T12:33:51.660Z,62027.28
2023-03-28T12:38:59.609Z,61991.56
2023-03-28T12:44:08.060Z,62023.59
2023-03-28T12:49:17.737Z,62051.22
2023-03-28T12:54:27.422Z,62084.91
2023-03-28T12:59:48.492Z,62124.38
2023-03-28T13:05:01.098Z,62160.16
2023-03-28T13:10:15.745Z,62125.22
2023-03-28T13:15:30.902Z,62069.19
2023-03-28T13:20:33.573Z,62063.63
2023-03-28T13:25:38.827Z,62000.78
2023-03-28T13:30:45.605Z,61929.91
2023-03-28T13:36:10.919Z,61930.72
2023-03-28T13:41:35.645Z,62010.25
2023-03-28T13:46:45.150Z,61968.66
2023-03-28T13:51:53.132Z,61987.06
2023-03-28T13:57:03.320Z,61957.88
2023-03-28T14:02:18.609Z,61981.41
2023-03-28T14:07:26.346Z,61999.69
2023-03-28T14:12:31.609Z,61946.69
2023-03-28T14:17:36.434Z,61950.75
2023-03-28T14:22:49.388Z,61973.00
2023-03-28T14:28:08.949Z,61939.69
2023-03-28T14:33:22.044Z,61937.72
2023-03-28T14:38:30.355Z,61955.22
2023-03-28T14:43:34.651Z,61989.59
2023-03-28T14:48:39.156Z,62014.50
2023-03-28T14:53:43.139Z,61981.22
2023-03-28T14:58:49.955Z,61989.06
2023-03-28T15:03:57.715Z,61976.09
2023-03-28T15:09:02.046Z,61953.41
2023-03-28T15:14:12.745Z,61977.47
2023-03-28T15:19:22.330Z,61988.84
2023-03-28T15:24:27.708Z,61948.09
2023-03-28T15:29:37.216Z,61931.09
2023-03-28T15:40:29.374Z,61955.28
2023-03-28T15:45:42.960Z,61972.78
2023-03-28T15:50:50.390Z,61985.81
2023-03-28T15:55:53.004Z,61906.19
2023-03-28T16:00:56.998Z,61937.81
2023-03-28T16:06:23.114Z,61911.41
2023-03-28T16:11:34.267Z,61917.00
2023-03-28T16:16:40.572Z,61869.25
2023-03-28T16:21:43.259Z,61927.13
2023-03-28T16:26:45.876Z,61909.38
2023-03-28T16:31:49.866Z,61914.75
2023-03-28T16:36:53.175Z,61877.56
2023-03-28T16:41:55.918Z,61864.22
2023-03-28T16:46:59.925Z,61873.72
2023-03-28T16:52:02.534Z,61823.19
2023-03-28T16:57:05.384Z,61858.53
2023-03-28T17:02:11.586Z,61825.09
2023-03-28T17:07:14.192Z,61819.78
2023-03-28T17:12:16.947Z,61796.28
2023-03-28T17:17:22.304Z,61823.13
2023-03-28T17:22:25.611Z,61796.53
2023-03-28T17:27:28.282Z,61825.94
2023-03-28T17:32:32.270Z,61790.47
2023-03-28T17:37:35.118Z,61774.66
2023-03-28T17:42:37.897Z,61757.81
2023-03-28T17:47:42.030Z,61763.31
2023-03-28T17:52:44.714Z,61742.34
2023-03-28T17:57:47.718Z,61734.00
2023-03-28T18:02:52.738Z,61713.69
2023-03-28T18:07:56.558Z,61744.66
2023-03-28T18:12:59.175Z,61736.66
2023-03-28T18:18:03.474Z,61737.13
2023-03-28T18:23:09.374Z,61724.00
2023-03-28T18:28:12.212Z,61732.59
2023-03-28T18:33:17.420Z,61680.22
2023-03-28T18:38:20.024Z,61699.31
2023-03-28T18:43:22.963Z,61736.13
2023-03-28T18:48:28.197Z,61735.13
2023-03-28T18:53:30.881Z,61726.38
2023-03-28T18:58:34.034Z,61676.75
2023-03-28T19:03:40.591Z,61735.53
2023-03-28T19:08:44.826Z,61727.75
2023-03-28T19:13:48.092Z,61786.50
2023-03-28T19:18:52.103Z,61759.59
2023-03-28T19:23:55.268Z,61768.84
2023-03-28T19:28:58.555Z,61753.66
2023-03-28T19:34:02.999Z,61727.50
2023-03-28T19:39:06.173Z,61720.66
2023-03-28T19:44:08.875Z,61745.47
2023-03-28T19:49:13.276Z,61717.47
2023-03-28T19:54:16.495Z,61755.84
2023-03-28T19:59:19.390Z,61688.47
2023-03-28T20:04:23.352Z,61720.25
2023-03-28T20:09:26.324Z,61722.13
2023-03-28T20:14:29.077Z,61730.22
2023-03-28T20:19:33.199Z,61697.38
2023-03-28T20:24:35.804Z,61694.06
2023-03-28T20:29:38.642Z,61693.22
2023-03-28T20:34:42.533Z,61672.84
2023-03-28T20:39:47.221Z,61635.94
2023-03-28T20:44:49.911Z,61668.41
2023-03-28T20:49:56.833Z,61656.34
2023-03-28T20:54:59.556Z,61649.50
2023-03-28T21:00:02.259Z,61634.88
2023-03-28T21:05:07.840Z,61644.56
2023-03-28T21:10:11.700Z,61650.06
2023-03-28T21:15:15.363Z,61634.00
2023-03-28T21:20:19.524Z,61616.31
2023-03-28T21:25:22.513Z,61646.13
2023-03-28T21:30:25.382Z,61595.41
2023-03-28T21:35:29.811Z,61602.56
2023-03-28T21:40:32.408Z,61611.22
2023-03-28T21:45:35.006Z,61617.31
2023-03-28T21:50:40.873Z,61609.22
2023-03-28T21:55:43.451Z,61610.47
2023-03-28T22:00:46.602Z,61579.75
2023-03-28T22:05:52.738Z,61567.69
2023-03-28T22:10:58.530Z,61547.38
2023-03-28T22:16:01.324Z,61539.97
2023-03-28T22:21:06.265Z,61555.38
2023-03-28T22:26:09.182Z,61541.88
2023-03-28T22:31:11.830Z,61550.69
2023-03-28T22:36:15.853Z,61561.47
2023-03-28T22:41:18.464Z,61566.69
2023-03-28T22:46:21.234Z,61555.84
2023-03-28T22:51:28.246Z,61534.72
2023-03-28T22:56:31.114Z,61559.94
2023-03-28T23:01:34.543Z,61570.19
2023-03-28T23:06:39.927Z,61532.94
2023-03-28T23:11:42.609Z,61551.38
2023-03-28T23:16:45.513Z,61553.38
2023-03-28T23:21:50.206Z,61547.81
2023-03-28T23:26:52.733Z,61573.69
2023-03-28T23:31:55.445Z,61555.69
2023-03-28T23:37:02.258Z,61555.25
2023-03-28T23:42:06.017Z,61609.88
2023-03-28T23:47:09.109Z,61575.22
2023-03-28T23:52:13.407Z,61545.69
2023-03-28T23:57:16.049Z,61522.94
